Time;durP1;ratioP1;P1;durP2;ratioP2;P2;SDS_P1;SDS_P2;PMS_P1;PMS_P2;Temp;Humidity;BMP_temperature;BMP_pressure;BME280_temperature;BME280_humidity;BME280_pressure;Samples;Min_cycle;Max_cycle;Signal;HPM_P1;HPM_P2
2023/04/04 01:19:13;;;;;;;69.65;6.97;;;18.70;38.10;;;;;;5085584;27;20516;-60
2023/04/04 01:21:51;;;;;;;72.07;7.72;;;18.40;38.90;;;;;;5086785;28;20608;-63
2023/04/04 01:24:21;;;;;;;78.80;7.68;;;18.30;39.20;;;;;;5089279;28;20075;-64
2023/04/04 01:26:50;;;;;;;45.95;5.72;;;18.30;39.50;;;;;;5091695;28;20190;-61
2023/04/04 01:29:16;;;;;;;57.92;5.78;;;18.20;40.00;;;;;;5090619;28;20064;-66
2023/04/04 01:31:51;;;;;;;34.20;4.30;;;18.10;40.20;;;;;;5086101;28;20076;-64
2023/04/04 01:34:28;;;;;;;43.33;4.70;;;18.00;40.80;;;;;;5091955;28;20067;-64
2023/04/04 01:37:26;;;;;;;33.65;4.30;;;17.80;41.00;;;;;;5091009;28;20083;-59
2023/04/04 01:40:04;;;;;;;39.40;5.47;;;17.90;41.40;;;;;;5046714;28;20589;-62
2023/04/04 01:42:32;;;;;;;59.40;6.43;;;17.80;41.70;;;;;;5044521;28;20093;-60
2023/04/04 01:44:58;;;;;;;49.92;5.60;;;17.50;41.60;;;;;;5032130;28;20426;-64
2023/04/04 01:47:25;;;;;;;35.50;5.15;;;17.40;42.10;;;;;;5051563;28;20591;-63
2023/04/04 01:49:52;;;;;;;40.22;4.85;;;17.20;42.30;;;;;;5046490;28;20077;-63
2023/04/04 01:52:19;;;;;;;46.28;5.05;;;17.20;42.30;;;;;;5043579;28;20081;-56
2023/04/04 01:54:45;;;;;;;39.92;4.55;;;17.10;42.30;;;;;;5048797;28;20070;-63
2023/04/04 01:57:12;;;;;;;33.17;4.85;;;17.00;42.50;;;;;;5045723;28;20113;-62
2023/04/04 01:59:39;;;;;;;32.50;4.43;;;16.90;42.50;;;;;;5045517;28;20481;-63
2023/04/04 02:02:05;;;;;;;39.85;5.05;;;16.80;42.80;;;;;;5047972;28;20073;-66
2023/04/04 02:04:32;;;;;;;43.83;4.75;;;16.80;42.80;;;;;;5047896;28;20086;-65
2023/04/04 02:06:59;;;;;;;45.88;5.05;;;16.70;43.20;;;;;;5051921;28;20081;-63
2023/04/04 02:09:25;;;;;;;56.05;6.32;;;16.70;43.40;;;;;;5043387;28;20105;-64
2023/04/04 02:11:51;;;;;;;47.08;5.55;;;16.60;43.70;;;;;;5049930;28;20489;-55
2023/04/04 02:14:18;;;;;;;40.80;4.85;;;16.50;43.90;;;;;;5046834;28;20078;-62
2023/04/04 02:16:45;;;;;;;40.85;5.10;;;16.40;44.30;;;;;;5075086;28;20133;-61
2023/04/04 02:19:11;;;;;;;40.75;6.30;;;16.50;44.50;;;;;;5087173;28;20093;-63
2023/04/04 02:21:38;;;;;;;34.30;5.07;;;16.30;44.80;;;;;;5084921;28;20065;-61
2023/04/04 02:24:05;;;;;;;41.85;5.30;;;16.20;45.10;;;;;;5088283;28;20107;-59
2023/04/04 02:26:31;;;;;;;38.20;5.68;;;16.20;45.40;;;;;;5087444;28;20094;-57
2023/04/04 02:28:58;;;;;;;26.95;4.57;;;16.20;45.50;;;;;;5087960;28;20587;-60
2023/04/04 02:31:26;;;;;;;25.55;4.30;;;16.10;45.40;;;;;;5076223;28;20081;-61
2023/04/04 02:33:52;;;;;;;40.88;4.88;;;16.10;45.40;;;;;;5072315;28;20093;-63
2023/04/04 02:36:18;;;;;;;25.90;4.18;;;16.00;45.40;;;;;;5072237;28;20076;-63
2023/04/04 02:38:45;;;;;;;25.73;3.85;;;15.90;45.60;;;;;;5073916;28;20092;-62
2023/04/04 02:41:15;;;;;;;28.05;4.03;;;16.00;46.00;;;;;;5070419;28;20073;-61
2023/04/04 02:43:41;;;;;;;28.27;4.78;;;15.90;46.10;;;;;;5073338;28;20080;-62
2023/04/04 02:46:08;;;;;;;32.95;5.18;;;15.80;46.00;;;;;;5073637;28;20069;-63
2023/04/04 02:48:35;;;;;;;28.52;4.15;;;15.80;45.80;;;;;;5073221;28;20083;-58
2023/04/04 02:51:01;;;;;;;26.15;4.40;;;15.70;45.90;;;;;;5076285;28;20085;-62
2023/04/04 02:53:28;;;;;;;27.02;4.43;;;15.80;45.80;;;;;;5072394;28;20072;-64
2023/04/04 02:55:54;;;;;;;26.08;4.65;;;15.70;45.40;;;;;;5076751;28;20073;-60
2023/04/04 02:58:21;;;;;;;18.30;4.20;;;15.60;45.40;;;;;;5070191;28;20101;-61
2023/04/04 03:00:54;;;;;;;20.92;4.32;;;15.60;45.30;;;;;;5075565;28;20072;-62
2023/04/04 03:03:21;;;;;;;20.52;4.22;;;15.60;45.10;;;;;;5073576;28;20085;-63
2023/04/04 03:05:51;;;;;;;17.67;3.90;;;15.50;45.20;;;;;;5069604;28;20095;-63
2023/04/04 03:08:18;;;;;;;29.23;4.40;;;15.50;45.30;;;;;;5070250;28;20093;-60
2023/04/04 03:10:45;;;;;;;16.25;3.65;;;15.50;45.70;;;;;;5069890;28;20073;-61
2023/04/04 03:13:12;;;;;;;23.05;3.70;;;15.50;46.00;;;;;;5071302;28;20156;-64
2023/04/04 03:15:42;;;;;;;19.77;2.92;;;15.40;46.20;;;;;;5070511;28;20069;-60
2023/04/04 03:18:09;;;;;;;24.60;3.78;;;15.40;46.40;;;;;;5070662;28;20513;-61
2023/04/04 03:20:36;;;;;;;14.23;3.22;;;15.30;46.50;;;;;;5072029;28;20073;-59
2023/04/04 03:23:02;;;;;;;18.15;3.65;;;15.30;46.70;;;;;;5068997;28;20057;-60
2023/04/04 03:25:28;;;;;;;20.63;3.45;;;15.30;46.80;;;;;;5068709;28;20085;-61
2023/04/04 03:27:56;;;;;;;17.05;3.60;;;15.30;46.80;;;;;;5068988;28;20069;-58
2023/04/04 03:30:22;;;;;;;17.85;3.97;;;15.30;46.90;;;;;;5069536;28;20089;-61
2023/04/04 03:32:50;;;;;;;23.23;3.90;;;15.20;47.00;;;;;;5069748;28;20077;-59
2023/04/04 03:35:17;;;;;;;16.00;3.22;;;15.20;47.00;;;;;;5069244;28;20083;-61
2023/04/04 03:37:43;;;;;;;21.00;3.55;;;15.30;47.20;;;;;;5069423;28;20180;-60
2023/04/04 03:40:10;;;;;;;12.55;3.05;;;15.20;47.10;;;;;;5070217;28;20085;-63
2023/04/04 03:42:36;;;;;;;23.67;4.00;;;15.00;47.20;;;;;;5067887;28;20163;-54
2023/04/04 03:45:02;;;;;;;;;;;15.00;47.40;;;;;;5070548;28;20075;-59
2023/04/04 03:47:29;;;;;;;11.77;3.40;;;15.10;47.50;;;;;;5069340;28;19957;-59
2023/04/04 03:49:55;;;;;;;;;;;15.10;47.30;;;;;;5068768;28;20090;-57
2023/04/04 03:52:21;;;;;;;25.58;3.28;;;15.10;47.20;;;;;;5068887;28;19964;-62
2023/04/04 03:54:47;;;;;;;;;;;15.10;47.40;;;;;;5073648;28;20547;-60
2023/04/04 03:57:14;;;;;;;11.10;2.60;;;15.00;47.50;;;;;;5073694;28;19979;-62
2023/04/04 03:59:41;;;;;;;;;;;15.00;48.50;;;;;;5069554;28;20104;-61
2023/04/04 04:02:07;;;;;;;21.23;4.30;;;14.90;48.30;;;;;;5069039;28;20006;-58
2023/04/04 04:04:34;;;;;;;17.40;3.70;;;14.90;48.40;;;;;;5074928;28;20126;-55
2023/04/04 04:07:01;;;;;;;16.85;3.05;;;14.90;48.40;;;;;;5067313;28;20069;-57
2023/04/04 04:09:27;;;;;;;19.42;4.13;;;14.90;48.60;;;;;;5069171;28;20069;-56
2023/04/04 04:11:54;;;;;;;19.08;3.30;;;14.90;48.60;;;;;;5068444;28;20079;-61
2023/04/04 04:14:21;;;;;;;;;;;14.90;48.50;;;;;;5068905;28;20069;-57
2023/04/04 04:16:47;;;;;;;25.08;3.33;;;14.90;48.40;;;;;;5068667;28;20010;-57
2023/04/04 04:19:13;;;;;;;14.68;3.72;;;14.80;48.40;;;;;;5068245;28;20130;-61
2023/04/04 04:21:41;;;;;;;;;;;14.90;48.70;;;;;;5067872;28;20758;-58
2023/04/04 04:24:08;;;;;;;17.35;3.58;;;14.90;48.70;;;;;;5068741;28;20035;-61
2023/04/04 04:26:34;;;;;;;13.82;3.25;;;14.90;48.70;;;;;;5066925;28;20162;-61
2023/04/04 04:29:01;;;;;;;19.70;3.85;;;14.80;49.10;;;;;;5068367;28;20425;-55
2023/04/04 04:31:27;;;;;;;17.60;3.60;;;14.80;49.30;;;;;;5068293;28;20537;-57
2023/04/04 04:33:54;;;;;;;27.60;3.60;;;14.80;49.50;;;;;;5069410;28;20084;-65
2023/04/04 04:36:21;;;;;;;22.30;8.30;;;14.70;49.60;;;;;;5068584;28;20171;-61
2023/04/04 04:38:48;;;;;;;17.52;7.65;;;14.80;49.80;;;;;;5068308;28;20180;-59
2023/04/04 04:41:14;;;;;;;12.60;3.80;;;14.70;49.90;;;;;;5068676;28;20073;-56
2023/04/04 04:43:41;;;;;;;16.10;3.75;;;14.70;49.70;;;;;;5068144;28;20111;-60
2023/04/04 04:46:10;;;;;;;14.35;3.72;;;14.70;49.70;;;;;;5069119;28;20065;-58
2023/04/04 04:48:36;;;;;;;20.75;4.20;;;14.70;49.90;;;;;;5068023;28;20073;-64
2023/04/04 04:51:03;;;;;;;13.98;3.60;;;14.70;50.10;;;;;;5067150;28;20084;-57
2023/04/04 04:53:29;;;;;;;14.35;3.40;;;14.70;50.30;;;;;;5067786;28;20561;-59
2023/04/04 04:55:55;;;;;;;;;;;14.70;50.50;;;;;;5070706;28;20072;-58
2023/04/04 04:58:22;;;;;;;14.15;3.70;;;14.70;50.30;;;;;;5076312;28;19983;-58
2023/04/04 05:00:53;;;;;;;19.52;4.13;;;14.60;50.20;;;;;;5067692;28;20452;-64
2023/04/04 05:03:20;;;;;;;14.52;4.18;;;14.60;49.70;;;;;;5068032;28;20061;-61
2023/04/04 05:05:46;;;;;;;18.50;3.55;;;14.70;50.00;;;;;;5068458;28;20092;-60
2023/04/04 05:08:14;;;;;;;21.02;3.53;;;14.60;49.90;;;;;;5067104;28;20081;-61
2023/04/04 05:10:41;;;;;;;17.80;3.65;;;14.50;49.80;;;;;;5067842;28;20104;-58
2023/04/04 05:13:08;;;;;;;16.25;4.05;;;14.60;49.90;;;;;;5066273;28;20068;-62
2023/04/04 05:15:35;;;;;;;18.42;3.38;;;14.50;49.90;;;;;;5070173;28;20096;-58
2023/04/04 05:18:02;;;;;;;14.43;3.63;;;14.40;50.00;;;;;;5068207;28;20183;-59
2023/04/04 05:20:28;;;;;;;15.80;3.95;;;14.50;50.40;;;;;;5068120;28;20513;-57
2023/04/04 05:22:55;;;;;;;;;;;14.50;50.70;;;;;;5065867;28;20564;-60
2023/04/04 05:25:21;;;;;;;16.85;4.03;;;14.40;50.60;;;;;;5066031;28;19956;-61
2023/04/04 05:27:47;;;;;;;;;;;14.30;50.70;;;;;;5068413;28;20587;-61
2023/04/04 05:30:14;;;;;;;17.67;3.30;;;14.30;51.30;;;;;;5068079;28;19963;-59
2023/04/04 05:32:41;;;;;;;21.35;3.45;;;14.40;51.00;;;;;;5068178;28;20135;-61
2023/04/04 05:35:07;;;;;;;;;;;14.30;50.80;;;;;;5068181;28;20734;-60
2023/04/04 05:37:37;;;;;;;14.05;3.30;;;14.30;50.90;;;;;;5067347;28;19981;-61
2023/04/04 05:40:04;;;;;;;12.73;3.53;;;14.20;51.10;;;;;;5067061;28;20480;-62
2023/04/04 05:42:31;;;;;;;13.70;3.38;;;14.20;51.20;;;;;;5067939;28;20077;-60
2023/04/04 05:44:57;;;;;;;;;;;14.10;51.30;;;;;;5068777;28;20065;-59
2023/04/04 05:47:23;;;;;;;11.55;3.30;;;14.10;51.60;;;;;;5067180;28;20054;-59
2023/04/04 05:49:49;;;;;;;;;;;14.10;51.70;;;;;;5072746;28;20121;-58
2023/04/04 05:52:16;;;;;;;17.40;3.60;;;14.00;51.60;;;;;;5067844;28;20009;-58
2023/04/04 05:54:42;;;;;;;;;;;14.00;51.70;;;;;;5066227;28;20164;-58
2023/04/04 05:57:08;;;;;;;15.98;3.83;;;14.00;51.70;;;;;;5068361;28;20452;-61
2023/04/04 05:59:35;;;;;;;;;;;14.00;51.90;;;;;;5067595;28;20537;-60
2023/04/04 06:02:01;;;;;;;18.15;4.05;;;14.00;52.00;;;;;;5072387;28;19961;-61
2023/04/04 06:04:27;;;;;;;;;;;14.00;52.10;;;;;;5072360;28;20073;-60
2023/04/04 06:06:54;;;;;;;14.27;3.38;;;14.00;52.20;;;;;;5076237;28;19956;-60
2023/04/04 06:09:21;;;;;;;16.95;3.85;;;14.00;52.20;;;;;;5074789;28;20429;-59
2023/04/04 06:11:47;;;;;;;;;;;14.00;52.30;;;;;;5071865;28;20068;-60
2023/04/04 06:14:13;;;;;;;16.52;4.07;;;14.00;52.30;;;;;;5071294;28;20018;-59
2023/04/04 06:16:39;;;;;;;;;;;13.90;52.40;;;;;;5073236;28;20437;-60
2023/04/04 06:19:06;;;;;;;18.77;4.30;;;13.90;53.10;;;;;;5070155;28;19977;-60
2023/04/04 06:21:33;;;;;;;14.75;3.65;;;13.90;53.40;;;;;;5075415;28;20069;-60
2023/04/04 06:23:59;;;;;;;;;;;13.90;53.50;;;;;;5073190;28;20402;-59
2023/04/04 06:26:25;;;;;;;16.45;3.75;;;13.90;53.70;;;;;;5073475;28;19963;-58
2023/04/04 06:28:52;;;;;;;20.67;4.03;;;13.90;53.80;;;;;;5075420;28;20069;-59
2023/04/04 06:31:18;;;;;;;18.85;4.40;;;13.90;53.90;;;;;;5076982;28;20103;-61
2023/04/04 06:33:45;;;;;;;14.85;4.10;;;13.90;54.10;;;;;;5075701;28;20441;-60
2023/04/04 06:36:11;;;;;;;18.63;4.03;;;13.90;54.30;;;;;;5076151;28;20097;-58
2023/04/04 06:38:37;;;;;;;;;;;13.80;54.50;;;;;;5077163;28;20115;-58
2023/04/04 06:41:04;;;;;;;16.73;4.40;;;13.80;54.70;;;;;;5074733;28;20010;-60
2023/04/04 06:43:30;;;;;;;;;;;13.80;55.00;;;;;;5073338;28;20074;-62
2023/04/04 06:45:56;;;;;;;16.88;3.70;;;13.80;54.90;;;;;;5074389;28;20374;-62
2023/04/04 06:48:23;;;;;;;20.13;4.03;;;13.80;55.00;;;;;;5071643;28;20484;-62
2023/04/04 06:50:50;;;;;;;15.90;3.85;;;13.80;55.10;;;;;;5071803;28;20091;-63
2023/04/04 06:53:16;;;;;;;13.27;3.45;;;13.80;55.10;;;;;;5074100;28;20179;-64
2023/04/04 06:55:43;;;;;;;11.65;3.33;;;13.80;55.10;;;;;;5074444;28;20580;-61
2023/04/04 06:58:09;;;;;;;14.68;3.85;;;13.80;54.90;;;;;;5074083;28;20392;-61
2023/04/04 07:00:35;;;;;;;;;;;13.80;54.80;;;;;;5075255;28;20096;-62
2023/04/04 07:03:02;;;;;;;13.95;3.50;;;13.80;54.70;;;;;;5075684;28;20312;-61
2023/04/04 07:05:28;;;;;;;;;;;13.70;54.30;;;;;;5075601;28;20486;-62
2023/04/04 07:07:55;;;;;;;11.00;3.08;;;13.80;54.10;;;;;;5074937;28;20460;-62
2023/04/04 07:10:25;;;;;;;18.33;3.75;;;13.80;53.90;;;;;;5075306;28;20115;-60
2023/04/04 07:12:52;;;;;;;15.05;3.53;;;13.80;54.20;;;;;;5075335;28;20081;-62
2023/04/04 07:15:18;;;;;;;15.45;3.20;;;13.80;53.20;;;;;;5074451;28;20092;-60
2023/04/04 07:17:45;;;;;;;22.25;3.45;;;13.80;53.10;;;;;;5075471;28;20112;-64
2023/04/04 07:20:12;;;;;;;18.55;4.10;;;13.80;52.80;;;;;;5074887;28;20073;-62
2023/04/04 07:22:39;;;;;;;16.02;3.50;;;13.70;52.30;;;;;;5074894;28;20089;-62
2023/04/04 07:25:07;;;;;;;15.45;3.20;;;13.70;52.00;;;;;;5075138;28;20073;-63
2023/04/04 07:27:34;;;;;;;19.50;3.47;;;13.80;51.80;;;;;;5075081;28;20084;-62
2023/04/04 07:30:01;;;;;;;13.40;2.95;;;13.80;51.50;;;;;;5071179;28;20073;-61
2023/04/04 07:32:29;;;;;;;12.05;3.50;;;13.80;51.20;;;;;;5073156;28;20073;-60
2023/04/04 07:34:55;;;;;;;14.98;3.30;;;13.80;51.20;;;;;;5073622;28;20084;-62
2023/04/04 07:37:22;;;;;;;9.15;2.80;;;13.80;51.10;;;;;;5072810;28;20089;-62
2023/04/04 07:39:48;;;;;;;;;;;13.80;50.80;;;;;;5074290;28;20186;-62
2023/04/04 07:42:22;;;;;;;16.48;3.00;;;13.70;50.70;;;;;;5074672;28;19992;-62
2023/04/04 07:44:57;;;;;;;13.13;3.35;;;13.60;51.00;;;;;;5073021;28;20077;-59
2023/04/04 07:47:23;;;;;;;15.82;2.75;;;13.60;51.00;;;;;;5073220;28;20077;-62
2023/04/04 07:49:50;;;;;;;37.15;4.28;;;13.50;49.80;;;;;;5073006;28;20451;-61
2023/04/04 07:52:16;;;;;;;47.90;5.38;;;13.50;46.00;;;;;;5072917;28;20107;-62
2023/04/04 07:54:43;;;;;;;;;;;13.40;42.50;;;;;;5073343;28;20444;-58
2023/04/04 07:57:09;;;;;;;42.78;5.60;;;13.40;40.30;;;;;;5071505;28;19988;-57
2023/04/04 07:59:36;;;;;;;50.58;5.15;;;13.40;40.10;;;;;;5073984;28;20085;-61
2023/04/04 08:02:03;;;;;;;57.80;5.88;;;13.30;39.80;;;;;;5075575;28;20188;-60
2023/04/04 08:04:29;;;;;;;75.53;6.65;;;13.30;38.70;;;;;;5073357;28;20127;-59
2023/04/04 08:06:56;;;;;;;75.68;7.00;;;13.20;37.30;;;;;;5073288;28;20641;-58
2023/04/04 08:09:23;;;;;;;82.57;7.78;;;13.20;36.80;;;;;;5073381;28;20077;-60
2023/04/04 08:11:50;;;;;;;60.75;5.68;;;13.20;37.10;;;;;;5072241;28;20472;-61
2023/04/04 08:14:16;;;;;;;87.68;6.93;;;13.20;37.00;;;;;;5073448;28;20556;-59
2023/04/04 08:16:42;;;;;;;;;;;13.10;35.70;;;;;;5074462;28;20080;-57
2023/04/04 08:19:09;;;;;;;89.00;8.88;;;13.00;35.10;;;;;;5073676;28;20412;-60
2023/04/04 08:21:35;;;;;;;;;;;12.90;34.70;;;;;;5073433;28;20865;-59
2023/04/04 08:24:02;;;;;;;101.35;9.48;;;12.90;34.70;;;;;;5073005;28;19965;-57
2023/04/04 08:26:29;;;;;;;100.07;8.95;;;12.90;34.40;;;;;;5071525;28;20127;-61
2023/04/04 08:28:55;;;;;;;116.72;11.23;;;12.80;34.00;;;;;;5072445;28;20156;-56
2023/04/04 08:31:22;;;;;;;;;;;12.70;33.50;;;;;;5070533;28;20079;-58
2023/04/04 08:33:48;;;;;;;116.90;10.55;;;12.70;33.00;;;;;;5071258;28;20403;-57
2023/04/04 08:36:15;;;;;;;;;;;12.60;33.10;;;;;;5072319;28;20153;-60
2023/04/04 08:38:42;;;;;;;84.43;9.38;;;12.60;32.80;;;;;;5072068;28;20059;-58
2023/04/04 08:41:10;;;;;;;97.05;9.68;;;12.60;32.60;;;;;;5074042;28;20549;-60
2023/04/04 08:43:40;;;;;;;90.22;8.50;;;12.50;32.20;;;;;;5071338;28;20077;-56
2023/04/04 08:46:09;;;;;;;95.43;7.38;;;12.50;32.20;;;;;;5072737;28;20073;-59
2023/04/04 08:48:38;;;;;;;86.75;8.40;;;12.50;32.10;;;;;;5072569;28;20507;-59
2023/04/04 08:51:07;;;;;;;77.88;7.95;;;12.30;31.90;;;;;;5070951;28;20077;-56
2023/04/04 08:53:36;;;;;;;111.10;9.93;;;12.20;32.00;;;;;;5073751;28;20613;-58
2023/04/04 08:56:03;;;;;;;86.30;8.65;;;12.20;31.90;;;;;;5071064;28;20077;-59
2023/04/04 08:58:29;;;;;;;80.40;7.15;;;12.20;31.70;;;;;;5072819;28;20189;-57
2023/04/04 09:00:56;;;;;;;68.60;7.63;;;12.20;31.60;;;;;;5071490;28;20069;-57
2023/04/04 09:03:25;;;;;;;77.32;6.40;;;12.20;31.40;;;;;;5072147;28;20853;-61
2023/04/04 09:05:54;;;;;;;74.40;7.10;;;12.20;31.00;;;;;;5072888;28;20084;-60
2023/04/04 09:08:23;;;;;;;65.28;7.15;;;12.10;30.90;;;;;;5071194;28;20544;-58
2023/04/04 09:10:51;;;;;;;49.33;5.72;;;12.20;30.70;;;;;;5072626;28;20121;-59
2023/04/04 09:13:18;;;;;;;64.13;5.55;;;12.20;30.80;;;;;;5072572;28;20081;-57
2023/04/04 09:15:52;;;;;;;64.53;6.43;;;12.20;30.90;;;;;;5071866;28;20108;-56
2023/04/04 09:18:19;;;;;;;53.03;6.10;;;12.20;30.90;;;;;;5072591;28;20115;-56
2023/04/04 09:20:49;;;;;;;64.30;5.88;;;12.10;31.20;;;;;;5071931;28;20072;-56
2023/04/04 09:23:19;;;;;;;63.75;6.03;;;12.10;31.40;;;;;;5072309;28;20105;-54
2023/04/04 09:25:55;;;;;;;64.32;5.53;;;12.10;31.60;;;;;;5073563;28;20069;-57
2023/04/04 09:28:22;;;;;;;50.17;5.30;;;12.10;31.80;;;;;;5074583;28;20524;-55
2023/04/04 09:30:50;;;;;;;68.63;5.72;;;12.00;31.90;;;;;;5072709;28;20467;-56
2023/04/04 09:33:17;;;;;;;43.67;4.70;;;11.90;32.10;;;;;;5069672;28;20077;-53
2023/04/04 09:35:48;;;;;;;36.00;3.90;;;11.90;32.20;;;;;;5071134;28;20084;-57
2023/04/04 09:38:16;;;;;;;41.88;3.47;;;11.80;32.50;;;;;;5070544;28;20089;-57
2023/04/04 09:40:43;;;;;;;31.27;3.40;;;11.80;32.40;;;;;;5075410;28;20072;-55
2023/04/04 09:43:12;;;;;;;35.45;3.70;;;11.80;32.60;;;;;;5074836;28;20762;-61
2023/04/04 09:45:44;;;;;;;33.83;3.63;;;11.80;32.50;;;;;;5074869;28;20065;-57
2023/04/04 09:48:11;;;;;;;36.17;3.33;;;11.80;32.70;;;;;;5075539;28;20073;-56
2023/04/04 09:50:45;;;;;;;17.02;3.15;;;11.80;33.50;;;;;;5076651;28;20119;-55
2023/04/04 09:53:20;;;;;;;29.42;3.22;;;11.80;33.10;;;;;;5074656;28;20069;-57
2023/04/04 09:55:51;;;;;;;31.30;3.30;;;11.70;33.80;;;;;;5074703;28;20263;-55
2023/04/04 09:58:23;;;;;;;30.83;3.53;;;11.60;34.60;;;;;;5076310;28;20576;-58
2023/04/04 10:00:56;;;;;;;22.35;2.47;;;11.60;34.80;;;;;;5075903;28;20080;-56
2023/04/04 10:03:26;;;;;;;27.33;2.88;;;11.50;35.00;;;;;;5077384;28;20092;-58
2023/04/04 10:05:59;;;;;;;20.40;2.70;;;11.40;34.90;;;;;;5075766;28;20069;-57
2023/04/04 10:08:27;;;;;;;19.83;2.30;;;11.40;35.30;;;;;;5073963;28;20073;-56
2023/04/04 10:10:57;;;;;;;24.73;2.83;;;11.30;34.90;;;;;;5075649;28;20100;-58
2023/04/04 10:13:29;;;;;;;20.33;1.92;;;11.20;34.80;;;;;;5074527;28;21044;-58
2023/04/04 10:15:57;;;;;;;17.35;1.95;;;11.20;34.20;;;;;;5075083;28;21438;-55
2023/04/04 10:18:26;;;;;;;22.65;2.45;;;11.10;34.30;;;;;;5074320;28;20140;-59
2023/04/04 10:20:55;;;;;;;16.80;2.33;;;11.10;34.20;;;;;;5076174;28;20089;-58
2023/04/04 10:23:25;;;;;;;15.95;2.30;;;11.10;33.80;;;;;;5074296;28;20070;-58
2023/04/04 10:25:55;;;;;;;16.58;2.13;;;11.00;33.50;;;;;;5075355;28;20593;-55
2023/04/04 10:28:24;;;;;;;11.45;1.70;;;11.00;33.60;;;;;;5076242;28;20104;-55
2023/04/04 10:31:16;;;;;;;9.00;1.45;;;11.10;33.70;;;;;;5075143;28;20091;-58
2023/04/04 10:33:46;;;;;;;11.82;1.88;;;11.00;33.40;;;;;;5074169;28;20073;-58
2023/04/04 10:36:15;;;;;;;11.30;1.83;;;11.00;33.50;;;;;;5074694;28;20068;-57
2023/04/04 10:38:44;;;;;;;8.73;1.60;;;11.00;33.40;;;;;;5073746;28;20093;-59
2023/04/04 10:41:12;;;;;;;15.05;2.03;;;11.00;33.90;;;;;;5076963;28;20077;-59
2023/04/04 10:43:43;;;;;;;13.65;1.58;;;11.00;34.30;;;;;;5076139;28;20077;-59
2023/04/04 10:46:20;;;;;;;13.35;1.27;;;10.90;34.50;;;;;;5073120;28;20481;-58
2023/04/04 10:48:47;;;;;;;19.42;1.63;;;10.90;34.20;;;;;;5076222;28;20078;-59
2023/04/04 10:51:15;;;;;;;10.70;1.50;;;10.90;34.40;;;;;;5075025;28;20556;-57
2023/04/04 10:53:42;;;;;;;6.50;1.10;;;10.90;34.20;;;;;;5074214;28;20081;-57
2023/04/04 10:56:09;;;;;;;3.40;1.20;;;10.90;33.80;;;;;;5073742;28;20103;-57
2023/04/04 10:58:42;;;;;;;3.05;0.90;;;10.80;34.00;;;;;;5075850;28;20085;-59
2023/04/04 11:01:09;;;;;;;9.02;1.30;;;10.80;33.80;;;;;;5073470;28;20154;-60
2023/04/04 11:04:27;;;;;;;6.20;1.10;;;10.80;34.10;;;;;;5076950;28;20212;-59
2023/04/04 11:07:12;;;;;;;9.48;1.20;;;10.80;33.80;;;;;;4996070;28;20350;-59
2023/04/04 11:09:51;;;;;;;3.30;0.82;;;10.80;33.60;;;;;;4991897;28;20094;-60
2023/04/04 11:12:43;;;;;;;5.38;1.10;;;10.80;33.40;;;;;;4994438;28;20541;-59
2023/04/04 11:15:13;;;;;;;3.30;0.95;;;10.80;33.50;;;;;;4994203;28;20130;-58
2023/04/04 11:18:11;;;;;;;2.55;0.70;;;10.80;33.60;;;;;;4996577;28;20197;-60
2023/04/04 11:20:44;;;;;;;10.73;1.10;;;10.80;34.00;;;;;;4998492;28;20081;-62
2023/04/04 11:23:25;;;;;;;3.10;1.05;;;10.60;33.90;;;;;;4993576;28;20108;-60
2023/04/04 11:25:56;;;;;;;9.13;1.23;;;10.70;34.30;;;;;;4993481;28;20106;-61
2023/04/04 11:28:44;;;;;;;3.15;1.30;;;10.70;34.00;;;;;;4992696;28;20105;-58
2023/04/04 11:31:19;;;;;;;10.00;1.10;;;10.70;33.90;;;;;;4995819;28;20087;-62
2023/04/04 11:34:10;;;;;;;8.52;1.05;;;10.70;33.50;;;;;;4991438;28;20242;-59
2023/04/04 11:36:36;;;;;;;5.20;1.08;;;10.70;33.40;;;;;;4994091;28;20555;-58
2023/04/04 11:39:05;;;;;;;;;;;10.70;33.30;;;;;;4994706;28;20101;-61
2023/04/04 11:41:47;;;;;;;9.27;1.23;;;10.70;33.40;;;;;;5003996;28;19966;-59
2023/04/04 11:44:16;;;;;;;3.22;1.10;;;10.80;33.40;;;;;;5073132;28;20073;-58
2023/04/04 11:46:43;;;;;;;11.07;1.35;;;10.80;33.50;;;;;;5071062;28;20076;-58
2023/04/04 11:49:10;;;;;;;9.30;0.95;;;10.70;33.60;;;;;;5074049;28;20117;-60
2023/04/04 11:51:41;;;;;;;2.55;1.10;;;10.80;33.80;;;;;;5074064;28;20077;-60
2023/04/04 11:54:17;;;;;;;6.05;1.13;;;10.70;33.50;;;;;;5075873;28;20077;-59
2023/04/04 11:56:44;;;;;;;8.90;1.45;;;10.70;33.60;;;;;;5073145;28;20068;-58
2023/04/04 11:59:11;;;;;;;2.53;1.10;;;10.70;33.80;;;;;;5073665;28;20085;-58
2023/04/04 12:01:39;;;;;;;1.15;0.95;;;10.70;34.00;;;;;;5071467;28;20444;-56
2023/04/04 12:04:05;;;;;;;4.32;1.15;;;10.60;34.10;;;;;;5072720;28;20532;-59
2023/04/04 12:06:34;;;;;;;6.28;0.90;;;10.60;34.30;;;;;;5073072;28;20157;-61
2023/04/04 12:09:04;;;;;;;5.32;0.90;;;10.50;34.70;;;;;;5073639;28;20096;-58
2023/04/04 12:11:35;;;;;;;5.05;0.90;;;10.50;34.70;;;;;;5072019;28;20077;-57
2023/04/04 12:14:01;;;;;;;5.00;0.93;;;10.50;34.90;;;;;;5072349;28;20164;-63
2023/04/04 12:16:28;;;;;;;5.75;0.90;;;10.50;35.00;;;;;;5074272;28;20540;-57
2023/04/04 12:19:01;;;;;;;3.13;0.95;;;10.40;34.90;;;;;;5075477;28;20204;-59
2023/04/04 12:21:30;;;;;;;12.40;1.25;;;10.50;34.90;;;;;;5072811;28;20080;-57
2023/04/04 12:23:57;;;;;;;5.50;1.10;;;10.50;34.80;;;;;;5073790;28;20543;-59
2023/04/04 12:26:28;;;;;;;3.13;1.05;;;10.40;34.70;;;;;;5074211;28;20079;-60
2023/04/04 12:28:57;;;;;;;3.72;1.00;;;10.50;35.20;;;;;;5071821;28;20077;-61
2023/04/04 12:31:25;;;;;;;4.43;0.98;;;10.40;34.90;;;;;;5072209;28;20072;-58
2023/04/04 12:33:53;;;;;;;6.78;0.98;;;10.40;35.00;;;;;;5071802;28;20077;-59
2023/04/04 12:36:19;;;;;;;12.32;1.52;;;10.30;34.90;;;;;;5073785;28;20077;-57
2023/04/04 12:39:02;;;;;;;6.28;1.08;;;10.20;34.90;;;;;;5071937;28;20180;-57
2023/04/04 12:41:28;;;;;;;7.40;1.13;;;10.20;35.00;;;;;;5070727;28;20068;-57
2023/04/04 12:44:06;;;;;;;6.20;1.05;;;10.10;35.00;;;;;;5072794;28;20168;-57
2023/04/04 12:46:41;;;;;;;7.78;1.20;;;10.20;34.90;;;;;;5071817;28;20069;-60
2023/04/04 12:49:10;;;;;;;3.33;1.00;;;10.10;34.70;;;;;;5068031;28;20125;-57
2023/04/04 12:51:38;;;;;;;8.85;1.10;;;10.20;34.80;;;;;;5073391;28;20081;-56
2023/04/04 12:54:06;;;;;;;7.75;1.05;;;10.20;34.40;;;;;;5071631;28;20084;-59
2023/04/04 12:56:35;;;;;;;6.10;1.40;;;10.20;34.10;;;;;;5072550;28;20080;-61
2023/04/04 12:59:03;;;;;;;10.10;2.10;;;10.20;34.70;;;;;;5071675;28;20088;-55
2023/04/04 13:01:32;;;;;;;4.38;1.65;;;10.10;34.00;;;;;;5072852;28;20163;-59
2023/04/04 13:04:08;;;;;;;5.47;1.90;;;10.10;33.90;;;;;;5074414;28;20146;-58
2023/04/04 13:06:36;;;;;;;9.40;1.60;;;10.20;34.10;;;;;;5071073;28;20073;-60
2023/04/04 13:09:06;;;;;;;9.05;2.00;;;10.10;33.60;;;;;;5073192;28;20541;-58
2023/04/04 13:12:11;;;;;;;6.18;2.28;;;10.10;33.90;;;;;;5071371;28;20077;-57
2023/04/04 13:15:00;;;;;;;9.10;1.60;;;10.20;33.80;;;;;;5009622;28;20074;-58
2023/04/04 13:17:41;;;;;;;7.53;1.65;;;10.20;33.40;;;;;;5007805;28;20121;-60
2023/04/04 13:20:08;;;;;;;10.18;1.80;;;10.20;33.50;;;;;;5015241;28;20118;-60
2023/04/04 13:22:38;;;;;;;7.28;1.83;;;10.10;33.60;;;;;;5009563;28;20121;-59
2023/04/04 13:25:06;;;;;;;4.22;1.70;;;10.10;33.80;;;;;;5008506;28;20077;-54
2023/04/04 13:27:35;;;;;;;3.28;1.27;;;9.90;33.80;;;;;;5009840;28;20505;-58
2023/04/04 13:30:02;;;;;;;4.22;1.17;;;9.90;33.90;;;;;;5010124;28;20128;-58
2023/04/04 13:32:28;;;;;;;4.63;1.15;;;10.00;33.90;;;;;;5008329;28;20094;-57
2023/04/04 13:34:55;;;;;;;;;;;10.00;34.10;;;;;;5011044;28;20078;-57
2023/04/04 13:37:21;;;;;;;3.95;0.95;;;9.90;34.10;;;;;;5010316;28;20056;-60
2023/04/04 13:39:47;;;;;;;7.55;1.20;;;9.90;34.00;;;;;;5009274;28;20137;-63
2023/04/04 13:42:14;;;;;;;;;;;9.90;33.90;;;;;;5010955;28;20079;-61
2023/04/04 13:44:40;;;;;;;3.72;1.40;;;10.00;34.20;;;;;;5023159;28;19960;-60
2023/04/04 13:47:06;;;;;;;;;;;10.00;34.10;;;;;;5072645;28;20172;-60
2023/04/04 13:49:33;;;;;;;4.40;1.30;;;9.90;34.00;;;;;;5068792;28;19957;-60
2023/04/04 13:51:59;;;;;;;;;;;9.90;34.20;;;;;;5069905;28;20081;-63
2023/04/04 13:54:25;;;;;;;5.95;1.05;;;9.90;34.10;;;;;;5069821;28;19961;-61
2023/04/04 13:56:51;;;;;;;;;;;9.90;34.30;;;;;;5071345;28;20073;-60
2023/04/04 13:59:18;;;;;;;6.28;1.40;;;10.00;34.40;;;;;;5071500;28;20062;-60
2023/04/04 14:01:44;;;;;;;;;;;10.00;34.40;;;;;;5072511;28;20439;-61
2023/04/04 14:04:10;;;;;;;2.85;1.27;;;10.00;34.30;;;;;;5071239;28;20004;-58
2023/04/04 14:06:37;;;;;;;6.38;1.20;;;10.10;34.70;;;;;;5072298;28;20750;-60
2023/04/04 14:09:03;;;;;;;;;;;10.20;34.60;;;;;;5071718;28;20132;-60
2023/04/04 14:11:30;;;;;;;5.90;1.30;;;10.20;34.50;;;;;;5071957;28;19957;-58
2023/04/04 14:13:57;;;;;;;12.05;1.77;;;10.30;34.60;;;;;;5071737;28;20065;-58
2023/04/04 14:16:23;;;;;;;5.82;1.65;;;10.40;34.90;;;;;;5070901;28;20134;-59